Time;durP1;ratioP1;P1;durP2;ratioP2;P2;SDS_P1;SDS_P2;PMS_P1;PMS_P2;Temp;Humidity;BMP_temperature;BMP_pressure;BME280_temperature;BME280_humidity;BME280_pressure;Samples;Min_cycle;Max_cycle;Signal;HPM_P1;HPM_P2
2022/08/31 00:04:55;;;;;;;3.65;3.00;;;25.80;85.70;;;;;;5054765;28;20447;-26
2022/08/31 00:07:22;;;;;;;3.55;3.20;;;25.80;85.70;;;;;;5054712;28;20017;-26
2022/08/31 00:09:48;;;;;;;3.13;2.65;;;25.80;85.80;;;;;;5054483;28;20029;-25
2022/08/31 00:12:14;;;;;;;3.08;2.60;;;25.80;85.70;;;;;;5054443;28;20032;-26
2022/08/31 00:14:39;;;;;;;3.38;3.08;;;25.80;85.70;;;;;;5054696;28;20029;-26
2022/08/31 00:17:06;;;;;;;3.80;2.83;;;25.80;85.60;;;;;;5054561;28;20465;-26
2022/08/31 00:19:32;;;;;;;3.47;3.00;;;25.80;85.60;;;;;;5054263;28;20448;-26
2022/08/31 00:21:57;;;;;;;2.88;2.60;;;25.80;85.50;;;;;;5054368;28;20096;-25
2022/08/31 00:24:23;;;;;;;4.57;2.97;;;25.80;85.40;;;;;;5054279;28;20495;-26
2022/08/31 00:26:49;;;;;;;3.92;3.05;;;25.80;85.40;;;;;;5054283;28;20060;-26
2022/08/31 00:29:14;;;;;;;3.33;2.72;;;25.80;85.50;;;;;;5054199;28;20056;-25
2022/08/31 00:31:40;;;;;;;4.43;2.75;;;25.80;85.60;;;;;;5054162;28;20402;-26
2022/08/31 00:34:06;;;;;;;3.55;2.90;;;25.80;85.60;;;;;;5054087;28;20070;-25
2022/08/31 00:36:32;;;;;;;3.75;2.80;;;25.80;85.80;;;;;;5054176;28;20025;-25
2022/08/31 00:38:58;;;;;;;4.10;2.70;;;25.70;85.80;;;;;;5053936;28;20059;-25
2022/08/31 00:41:27;;;;;;;4.15;3.10;;;25.70;85.90;;;;;;5052847;28;20052;-25
2022/08/31 00:43:56;;;;;;;5.60;3.25;;;25.70;86.00;;;;;;5054210;28;20379;-26
2022/08/31 00:46:25;;;;;;;5.20;3.10;;;25.70;86.10;;;;;;5054003;28;20111;-26
2022/08/31 00:49:04;;;;;;;3.80;2.90;;;25.70;86.20;;;;;;5035860;28;20108;-26
2022/08/31 00:51:35;;;;;;;3.67;2.90;;;25.70;87.10;;;;;;5053698;28;20025;-26
2022/08/31 00:54:01;;;;;;;3.75;2.90;;;25.70;86.30;;;;;;5053782;28;20028;-25
2022/08/31 00:56:30;;;;;;;4.25;3.03;;;25.70;86.40;;;;;;5053824;28;20498;-26
2022/08/31 00:58:56;;;;;;;3.67;2.90;;;25.70;86.40;;;;;;5053582;28;20079;-25
2022/08/31 01:01:22;;;;;;;5.13;2.92;;;25.60;86.40;;;;;;5053616;28;20086;-26
2022/08/31 01:03:48;;;;;;;7.57;3.15;;;25.70;86.50;;;;;;5053647;28;20029;-26
2022/08/31 01:06:17;;;;;;;4.43;3.35;;;25.60;86.50;;;;;;5053508;28;20048;-26
2022/08/31 01:08:45;;;;;;;7.25;3.53;;;25.70;86.60;;;;;;5053398;28;20532;-25
2022/08/31 01:11:12;;;;;;;4.50;3.00;;;25.60;86.80;;;;;;5053406;28;20119;-25
2022/08/31 01:13:38;;;;;;;4.85;3.40;;;25.60;87.20;;;;;;5053353;28;20155;-25
2022/08/31 01:16:09;;;;;;;3.30;2.92;;;25.60;87.50;;;;;;5053444;28;20060;-26
2022/08/31 01:18:35;;;;;;;7.03;3.33;;;25.60;87.60;;;;;;5053154;28;20024;-26
2022/08/31 01:21:05;;;;;;;4.97;2.63;;;25.60;87.90;;;;;;5053177;28;20445;-25
2022/08/31 01:23:41;;;;;;;4.68;2.60;;;25.60;88.10;;;;;;5053311;28;20029;-26
2022/08/31 01:26:08;;;;;;;5.00;3.10;;;25.60;88.10;;;;;;5053274;28;20029;-26
2022/08/31 01:28:34;;;;;;;4.82;3.25;;;25.50;88.20;;;;;;5053080;28;20390;-25
2022/08/31 01:31:06;;;;;;;5.55;3.42;;;25.60;88.50;;;;;;5052923;28;20031;-26
2022/08/31 01:33:34;;;;;;;3.53;2.97;;;25.60;88.60;;;;;;5052971;28;20112;-25
2022/08/31 01:35:59;;;;;;;5.65;3.03;;;25.60;88.80;;;;;;5053109;28;20031;-25
2022/08/31 01:38:26;;;;;;;5.53;2.97;;;25.60;88.70;;;;;;5052953;28;20441;-25
2022/08/31 01:40:56;;;;;;;6.25;2.95;;;25.60;89.10;;;;;;5052654;28;20021;-26
2022/08/31 01:43:22;;;;;;;5.75;3.05;;;25.60;89.10;;;;;;5052960;28;20025;-26
2022/08/31 01:45:49;;;;;;;7.70;3.00;;;25.60;89.30;;;;;;5052781;28;20047;-26
2022/08/31 01:48:16;;;;;;;5.18;3.03;;;25.60;89.50;;;;;;5052747;28;20039;-26
2022/08/31 01:50:42;;;;;;;3.95;2.88;;;25.60;89.60;;;;;;5052497;28;20032;-25
2022/08/31 01:53:09;;;;;;;6.78;3.15;;;25.50;89.70;;;;;;5052698;28;20052;-26
2022/08/31 01:55:35;;;;;;;5.20;3.08;;;25.50;89.70;;;;;;5052651;28;20025;-26
2022/08/31 01:58:01;;;;;;;4.97;2.83;;;25.60;89.90;;;;;;5052650;28;20478;-25
2022/08/31 02:00:27;;;;;;;5.97;3.08;;;25.60;89.90;;;;;;5052193;28;20028;-26
2022/08/31 02:02:56;;;;;;;7.00;3.08;;;25.60;89.90;;;;;;5052694;28;20386;-26
2022/08/31 02:05:21;;;;;;;5.28;3.13;;;25.60;90.00;;;;;;5052510;28;20368;-25
2022/08/31 02:07:47;;;;;;;4.45;2.80;;;25.60;90.00;;;;;;5052428;28;20021;-25
2022/08/31 02:10:13;;;;;;;6.75;3.17;;;25.60;90.00;;;;;;5034564;28;20387;-25
2022/08/31 02:12:39;;;;;;;4.93;3.25;;;25.50;90.00;;;;;;5052177;28;20049;-25
2022/08/31 02:15:05;;;;;;;5.30;2.97;;;25.60;90.10;;;;;;5052276;28;20506;-25
2022/08/31 02:17:31;;;;;;;6.32;3.45;;;25.50;90.10;;;;;;5052326;28;20067;-25
2022/08/31 02:19:57;;;;;;;3.72;2.72;;;25.50;90.20;;;;;;5052093;28;20049;-26
2022/08/31 02:22:22;;;;;;;4.43;2.85;;;25.50;90.20;;;;;;5052147;28;20021;-25
2022/08/31 02:24:48;;;;;;;5.07;3.08;;;25.50;90.30;;;;;;5052174;28;20455;-25
2022/08/31 02:27:14;;;;;;;4.43;2.90;;;25.50;90.40;;;;;;5052102;28;20032;-26
2022/08/31 02:29:39;;;;;;;4.10;2.83;;;25.50;90.40;;;;;;5051868;28;20025;-26
2022/08/31 02:32:05;;;;;;;4.65;3.20;;;25.50;90.40;;;;;;5051942;28;20036;-25
2022/08/31 02:34:31;;;;;;;4.75;3.20;;;25.50;90.50;;;;;;5052011;28;20029;-25
2022/08/31 02:36:57;;;;;;;4.68;3.10;;;25.50;90.50;;;;;;5052082;28;20032;-26
2022/08/31 02:39:23;;;;;;;4.30;2.80;;;25.50;90.50;;;;;;5051856;28;20028;-26
2022/08/31 02:41:49;;;;;;;8.15;2.97;;;25.50;90.60;;;;;;5051963;28;20105;-26
2022/08/31 02:44:14;;;;;;;4.90;2.95;;;25.50;90.60;;;;;;5051809;28;20024;-25
2022/08/31 02:46:40;;;;;;;4.20;3.28;;;25.50;90.60;;;;;;5051873;28;20021;-25
2022/08/31 02:49:06;;;;;;;4.95;3.17;;;25.50;90.60;;;;;;5051766;28;20029;-26
2022/08/31 02:51:31;;;;;;;4.15;2.70;;;25.50;90.60;;;;;;5051716;28;20032;-26
2022/08/31 02:53:57;;;;;;;3.80;2.70;;;25.50;90.60;;;;;;5051750;28;20028;-26
2022/08/31 02:56:23;;;;;;;5.10;3.03;;;25.50;90.70;;;;;;5052047;28;20049;-25
2022/08/31 02:58:53;;;;;;;4.28;2.67;;;25.50;90.70;;;;;;5051561;28;20100;-25
2022/08/31 03:01:21;;;;;;;6.47;3.20;;;25.50;90.70;;;;;;5051638;28;20444;-25
2022/08/31 03:03:47;;;;;;;3.58;2.65;;;25.40;90.70;;;;;;5053816;28;20028;-26
2022/08/31 03:06:13;;;;;;;7.82;2.95;;;25.40;90.70;;;;;;5055914;28;20078;-25
2022/08/31 03:08:40;;;;;;;4.13;2.45;;;25.50;90.80;;;;;;5055668;28;20028;-25
2022/08/31 03:11:06;;;;;;;3.70;2.88;;;25.40;90.80;;;;;;5055566;28;20024;-26
2022/08/31 03:13:33;;;;;;;8.90;2.80;;;25.40;90.80;;;;;;5055635;28;20059;-25
2022/08/31 03:15:58;;;;;;;4.30;3.03;;;25.40;90.80;;;;;;5055714;28;20083;-25
2022/08/31 03:18:24;;;;;;;4.85;3.00;;;25.40;90.90;;;;;;5055481;28;20025;-26
2022/08/31 03:20:50;;;;;;;4.75;2.70;;;25.40;90.90;;;;;;5055493;28;20017;-26
2022/08/31 03:23:15;;;;;;;3.63;2.75;;;25.40;90.90;;;;;;5055589;28;20025;-25
2022/08/31 03:25:41;;;;;;;3.95;3.10;;;25.40;90.90;;;;;;5055461;28;20048;-25
2022/08/31 03:28:07;;;;;;;4.22;2.70;;;25.40;90.90;;;;;;5055473;28;20228;-25
2022/08/31 03:30:33;;;;;;;6.50;2.90;;;25.40;90.90;;;;;;5055173;28;20041;-25
2022/08/31 03:32:59;;;;;;;5.82;2.85;;;25.40;91.00;;;;;;5055376;28;20045;-25
2022/08/31 03:35:25;;;;;;;3.05;2.70;;;25.30;91.00;;;;;;5055365;28;20021;-25
2022/08/31 03:37:51;;;;;;;4.88;3.00;;;25.40;91.00;;;;;;5055307;28;20018;-26
2022/08/31 03:40:16;;;;;;;3.60;2.65;;;25.40;91.00;;;;;;5054937;28;20027;-26
2022/08/31 03:42:43;;;;;;;3.67;2.80;;;25.30;91.00;;;;;;5055058;28;20033;-25
2022/08/31 03:45:10;;;;;;;3.65;2.55;;;25.30;91.00;;;;;;5055128;28;20016;-26
2022/08/31 03:47:36;;;;;;;5.10;3.00;;;25.40;91.10;;;;;;5055104;28;20021;-25
2022/08/31 03:50:04;;;;;;;5.63;3.00;;;25.30;91.10;;;;;;5054977;28;20429;-26
2022/08/31 03:52:31;;;;;;;3.65;2.70;;;25.40;91.10;;;;;;5055005;28;20406;-26
2022/08/31 03:54:56;;;;;;;3.17;2.83;;;25.30;91.10;;;;;;5054777;28;20088;-26
2022/08/31 03:57:22;;;;;;;4.70;2.95;;;25.30;91.20;;;;;;5054923;28;20490;-25
2022/08/31 03:59:52;;;;;;;4.95;2.80;;;25.30;91.20;;;;;;5054723;28;20112;-25
2022/08/31 04:02:17;;;;;;;3.15;2.55;;;25.30;91.20;;;;;;5055087;28;20025;-25
2022/08/31 04:04:49;;;;;;;3.35;2.92;;;25.30;91.20;;;;;;5054809;28;20025;-26
2022/08/31 04:07:14;;;;;;;4.82;2.90;;;25.30;91.20;;;;;;5054758;28;20017;-25
2022/08/31 04:09:40;;;;;;;4.70;3.00;;;25.30;91.20;;;;;;5054787;28;20029;-26
2022/08/31 04:12:06;;;;;;;4.88;2.95;;;25.30;91.30;;;;;;5054487;28;20071;-25
2022/08/31 04:14:32;;;;;;;4.35;2.42;;;25.30;91.30;;;;;;5053435;28;20078;-26
2022/08/31 04:16:59;;;;;;;4.30;2.55;;;25.30;91.30;;;;;;5054587;28;20432;-25
2022/08/31 04:19:25;;;;;;;3.50;2.50;;;25.20;91.30;;;;;;5054404;28;20021;-25
2022/08/31 04:21:51;;;;;;;5.10;3.22;;;25.30;91.40;;;;;;5054313;28;20386;-25
2022/08/31 04:24:16;;;;;;;4.25;3.00;;;25.20;91.30;;;;;;5054423;28;20151;-25
2022/08/31 04:26:42;;;;;;;4.53;3.03;;;25.20;91.30;;;;;;5036436;28;20479;-25
2022/08/31 04:29:08;;;;;;;3.60;2.53;;;25.20;91.40;;;;;;5054288;28;20036;-26
2022/08/31 04:31:35;;;;;;;7.47;2.80;;;25.20;91.40;;;;;;5054159;28;20029;-25
2022/08/31 04:34:01;;;;;;;5.57;2.80;;;25.20;91.40;;;;;;5054224;28;20025;-25
2022/08/31 04:36:27;;;;;;;3.35;2.45;;;25.20;91.40;;;;;;5054219;28;20360;-26
2022/08/31 04:38:56;;;;;;;3.97;2.60;;;25.20;91.80;;;;;;5053973;28;20048;-26
2022/08/31 04:41:24;;;;;;;3.38;2.45;;;25.20;91.40;;;;;;5053880;28;20029;-26
2022/08/31 04:43:52;;;;;;;3.47;2.35;;;25.20;91.40;;;;;;5054053;28;20036;-26
2022/08/31 04:46:19;;;;;;;3.80;2.55;;;25.20;91.40;;;;;;5054053;28;20025;-26
2022/08/31 04:48:45;;;;;;;4.50;2.90;;;25.20;91.50;;;;;;5053777;28;20028;-26
2022/08/31 04:51:23;;;;;;;4.00;2.85;;;25.20;91.50;;;;;;5053671;28;20024;-26
2022/08/31 04:53:51;;;;;;;4.25;2.63;;;25.20;91.50;;;;;;5054158;28;20033;-26
2022/08/31 04:56:29;;;;;;;4.35;2.58;;;25.20;91.50;;;;;;5053771;28;20021;-26
2022/08/31 04:59:00;;;;;;;3.55;2.58;;;25.10;91.40;;;;;;5053647;28;20017;-25
2022/08/31 05:01:31;;;;;;;5.35;2.70;;;25.10;91.40;;;;;;5053495;28;20032;-26
2022/08/31 05:03:57;;;;;;;4.38;2.60;;;25.10;91.50;;;;;;5053742;28;20041;-25
2022/08/31 05:06:26;;;;;;;4.05;2.67;;;25.10;91.50;;;;;;5053836;28;20413;-26
2022/08/31 05:08:54;;;;;;;3.47;2.60;;;25.10;91.60;;;;;;5053494;28;20079;-26
2022/08/31 05:11:20;;;;;;;4.40;2.50;;;25.10;91.50;;;;;;5053482;28;20528;-25
2022/08/31 05:13:46;;;;;;;3.47;2.78;;;25.10;91.60;;;;;;5053440;28;20040;-25
2022/08/31 05:16:15;;;;;;;4.50;2.83;;;25.00;91.50;;;;;;5053325;28;20144;-26
2022/08/31 05:18:42;;;;;;;3.83;2.50;;;25.10;91.60;;;;;;5053556;28;20040;-25
2022/08/31 05:21:15;;;;;;;3.83;2.63;;;25.00;91.50;;;;;;5053249;28;20017;-25
2022/08/31 05:23:44;;;;;;;3.88;2.65;;;25.10;91.60;;;;;;5053542;28;20028;-25
2022/08/31 05:26:17;;;;;;;3.83;2.55;;;25.10;91.60;;;;;;5052897;28;20480;-26
2022/08/31 05:28:43;;;;;;;4.45;2.20;;;25.00;91.60;;;;;;5052937;28;20033;-25
2022/08/31 05:31:08;;;;;;;2.85;2.35;;;25.00;91.60;;;;;;5053035;28;20020;-26
2022/08/31 05:33:34;;;;;;;2.53;2.10;;;25.00;91.60;;;;;;5053089;28;20029;-26
2022/08/31 05:36:01;;;;;;;3.65;2.40;;;25.00;91.60;;;;;;5053105;28;20025;-26
2022/08/31 05:38:26;;;;;;;4.50;2.58;;;25.00;91.60;;;;;;5052991;28;20466;-26
2022/08/31 05:40:53;;;;;;;2.75;2.20;;;25.00;91.70;;;;;;5052774;28;20029;-25
2022/08/31 05:43:20;;;;;;;3.38;2.42;;;25.00;91.70;;;;;;5062049;22;20053;-24
2022/08/31 05:45:46;;;;;;;3.70;2.70;;;25.00;91.70;;;;;;5033124;28;20026;-24
2022/08/31 05:48:11;;;;;;;3.78;2.42;;;25.00;91.70;;;;;;5032935;28;20029;-24
2022/08/31 05:50:37;;;;;;;3.58;2.42;;;25.00;91.70;;;;;;5032866;28;20082;-24
2022/08/31 05:53:03;;;;;;;3.22;2.70;;;25.00;91.70;;;;;;5032768;28;20021;-24
2022/08/31 05:55:30;;;;;;;5.13;2.28;;;25.00;91.70;;;;;;5032924;28;20091;-24
2022/08/31 05:57:55;;;;;;;4.45;2.20;;;25.00;91.70;;;;;;5032716;28;20104;-24
2022/08/31 06:00:24;;;;;;;3.08;2.42;;;24.90;91.70;;;;;;5032625;28;20092;-24
2022/08/31 06:02:50;;;;;;;4.45;2.40;;;24.90;91.70;;;;;;5032603;28;20017;-24
2022/08/31 06:05:16;;;;;;;3.42;2.63;;;24.90;91.70;;;;;;5032877;28;20482;-23
2022/08/31 06:07:42;;;;;;;3.33;2.67;;;24.90;91.80;;;;;;5032679;28;20102;-23
2022/08/31 06:10:08;;;;;;;2.95;2.30;;;24.90;91.70;;;;;;5032457;28;20432;-23
2022/08/31 06:12:36;;;;;;;4.47;2.70;;;24.90;91.80;;;;;;5032573;28;20032;-23
2022/08/31 06:15:03;;;;;;;3.42;2.13;;;24.90;91.80;;;;;;5014615;28;20025;-23
2022/08/31 06:17:31;;;;;;;2.78;2.50;;;24.90;91.80;;;;;;5032534;28;20105;-23
2022/08/31 06:19:57;;;;;;;3.30;2.40;;;24.90;91.80;;;;;;5032431;28;20025;-24
2022/08/31 06:22:24;;;;;;;3.50;2.25;;;24.90;91.90;;;;;;5032400;28;20028;-23
2022/08/31 06:24:50;;;;;;;3.72;2.40;;;24.90;91.90;;;;;;5032409;28;20026;-23
2022/08/31 06:27:16;;;;;;;2.60;2.13;;;24.90;91.90;;;;;;5032338;28;20036;-23
2022/08/31 06:29:42;;;;;;;3.03;2.50;;;24.90;91.90;;;;;;5032301;28;20471;-23
2022/08/31 06:32:09;;;;;;;4.07;2.45;;;24.90;91.90;;;;;;5014661;28;20038;-24
2022/08/31 06:34:36;;;;;;;2.75;2.40;;;24.80;91.90;;;;;;5032602;28;20037;-23
2022/08/31 06:37:03;;;;;;;4.10;2.45;;;24.80;92.00;;;;;;5032663;28;20021;-23
2022/08/31 06:39:29;;;;;;;3.33;2.30;;;24.80;92.00;;;;;;5031608;28;20029;-24
2022/08/31 06:41:55;;;;;;;3.67;2.70;;;24.80;92.00;;;;;;5032056;28;20025;-23
2022/08/31 06:44:22;;;;;;;3.97;2.15;;;24.80;92.10;;;;;;5032281;28;20032;-23
2022/08/31 06:46:49;;;;;;;3.47;2.22;;;24.80;92.10;;;;;;5032487;28;20029;-24
2022/08/31 06:49:16;;;;;;;4.72;2.70;;;24.80;92.10;;;;;;5032348;28;20034;-24
2022/08/31 06:51:42;;;;;;;3.67;2.38;;;24.50;91.70;;;;;;5014762;28;20029;-24
2022/08/31 06:54:10;;;;;;;3.85;2.42;;;24.10;92.40;;;;;;5032425;28;20037;-24
2022/08/31 06:56:36;;;;;;;5.85;2.95;;;23.90;92.60;;;;;;5032360;28;20021;-24
2022/08/31 06:59:04;;;;;;;4.40;2.47;;;23.90;92.70;;;;;;5014315;28;20032;-24
2022/08/31 07:01:31;;;;;;;3.90;2.53;;;24.00;92.60;;;;;;5032260;28;20014;-24
2022/08/31 07:03:58;;;;;;;4.63;2.88;;;24.10;92.50;;;;;;5032422;28;20028;-24
2022/08/31 07:06:27;;;;;;;6.80;2.58;;;24.20;92.40;;;;;;5032190;28;20092;-24
2022/08/31 07:08:56;;;;;;;4.97;2.55;;;24.30;92.30;;;;;;5032232;28;20032;-24
2022/08/31 07:11:37;;;;;;;4.13;2.78;;;24.30;92.20;;;;;;5031927;28;20036;-24
2022/08/31 07:14:04;;;;;;;2.60;2.40;;;24.40;92.20;;;;;;5032250;28;20018;-24
2022/08/31 07:16:30;;;;;;;4.13;2.67;;;24.40;92.20;;;;;;5032145;28;20481;-24
2022/08/31 07:18:59;;;;;;;6.10;2.60;;;24.40;92.20;;;;;;5032016;28;20027;-24
2022/08/31 07:21:28;;;;;;;6.40;2.30;;;24.40;92.20;;;;;;5032173;28;20021;-24
2022/08/31 07:23:57;;;;;;;3.30;2.50;;;24.40;92.10;;;;;;5031794;28;20036;-23
2022/08/31 07:26:26;;;;;;;4.55;2.30;;;24.50;92.20;;;;;;5032197;28;20037;-23
2022/08/31 07:28:54;;;;;;;4.72;2.40;;;24.50;92.20;;;;;;5032265;28;20235;-24
2022/08/31 07:31:24;;;;;;;4.30;2.65;;;24.50;92.20;;;;;;5032102;28;20031;-23
2022/08/31 07:33:54;;;;;;;4.10;2.38;;;24.50;92.20;;;;;;5032239;28;20398;-23
2022/08/31 07:36:22;;;;;;;5.18;2.50;;;24.50;92.30;;;;;;5014452;28;20021;-24
2022/08/31 07:44:19;;;;;;;4.13;2.55;;;24.40;92.30;;;;;;5032046;28;20449;-24
2022/08/31 07:46:46;;;;;;;4.60;2.80;;;24.40;92.30;;;;;;5032165;28;20220;-23
2022/08/31 07:49:13;;;;;;;4.82;2.78;;;24.40;92.30;;;;;;5032823;28;20032;-23
2022/08/31 07:51:48;;;;;;;3.67;2.33;;;24.40;92.40;;;;;;5035961;28;20509;-23
2022/08/31 07:54:19;;;;;;;2.97;2.22;;;24.40;92.30;;;;;;5036108;28;20482;-24
2022/08/31 07:56:52;;;;;;;4.45;2.55;;;24.40;92.40;;;;;;5038659;28;20467;-23
2022/08/31 07:59:20;;;;;;;3.45;2.30;;;24.40;92.40;;;;;;5038392;28;20080;-24
2022/08/31 08:01:47;;;;;;;6.32;2.58;;;24.40;92.40;;;;;;5037323;28;20505;-23
2022/08/31 08:04:20;;;;;;;3.20;2.40;;;24.40;92.40;;;;;;5035797;28;20060;-24
2022/08/31 08:06:47;;;;;;;3.58;2.65;;;24.40;92.40;;;;;;5036282;28;20108;-24
2022/08/31 08:09:13;;;;;;;3.30;2.10;;;24.40;92.40;;;;;;5035922;28;20474;-24
2022/08/31 08:11:43;;;;;;;3.10;2.08;;;24.40;92.50;;;;;;5035269;28;20435;-24
2022/08/31 08:14:10;;;;;;;3.42;2.50;;;24.40;92.50;;;;;;5035893;28;20104;-24
2022/08/31 08:16:36;;;;;;;4.60;2.25;;;24.40;92.50;;;;;;5035306;28;20543;-24
2022/08/31 08:19:02;;;;;;;3.55;2.30;;;24.40;92.50;;;;;;5017369;28;20109;-24
2022/08/31 08:21:28;;;;;;;3.35;2.40;;;24.40;92.50;;;;;;5035242;28;20394;-24
2022/08/31 08:23:54;;;;;;;6.22;2.33;;;24.40;92.60;;;;;;5035319;28;20064;-24
2022/08/31 08:26:20;;;;;;;3.60;2.67;;;24.40;92.60;;;;;;5035520;28;20198;-24
2022/08/31 08:28:46;;;;;;;3.92;2.30;;;24.30;92.50;;;;;;5035247;28;20025;-24
2022/08/31 08:31:15;;;;;;;4.47;2.40;;;24.30;92.60;;;;;;5035020;28;20025;-24
2022/08/31 08:33:42;;;;;;;3.65;2.35;;;24.30;92.60;;;;;;5035069;28;20132;-24
2022/08/31 08:36:09;;;;;;;5.45;2.35;;;24.30;92.60;;;;;;5034930;28;20498;-24
2022/08/31 08:38:38;;;;;;;3.72;2.30;;;24.30;92.60;;;;;;5034877;28;20044;-24
2022/08/31 08:41:15;;;;;;;2.83;2.05;;;24.30;92.60;;;;;;5035582;28;20197;-24
2022/08/31 08:43:45;;;;;;;3.17;2.20;;;24.30;92.70;;;;;;5034842;28;20025;-24
2022/08/31 08:46:13;;;;;;;2.65;2.00;;;24.30;92.70;;;;;;5035320;28;20302;-23
2022/08/31 08:48:42;;;;;;;12.25;3.92;;;24.30;92.70;;;;;;5034272;28;20399;-24
2022/08/31 08:51:22;;;;;;;5.05;3.22;;;24.10;93.90;;;;;;5034372;28;20022;-23
2022/08/31 08:53:55;;;;;;;6.63;3.08;;;23.80;94.60;;;;;;5034538;28;20437;-24
2022/08/31 08:56:21;;;;;;;7.53;3.20;;;23.70;94.50;;;;;;5035006;28;20053;-24
2022/08/31 08:58:47;;;;;;;5.68;2.72;;;23.70;94.40;;;;;;5034716;28;20026;-24
2022/08/31 09:01:23;;;;;;;3.85;2.92;;;23.90;94.20;;;;;;5034010;28;20680;-24
2022/08/31 09:04:18;;;;;;;6.07;3.40;;;23.90;94.20;;;;;;5034267;28;20022;-24
2022/08/31 09:06:52;;;;;;;;;;;24.00;94.40;;;;;;5034922;28;20060;-24
2022/08/31 09:09:27;;;;;;;5.40;2.80;;;24.00;94.50;;;;;;5034449;28;20000;-24
2022/08/31 09:12:25;;;;;;;6.15;2.70;;;24.00;94.50;;;;;;5034403;28;20026;-24
2022/08/31 09:15:27;;;;;;;4.47;2.63;;;24.10;94.60;;;;;;5034257;28;20029;-24
2022/08/31 09:17:57;;;;;;;3.55;2.60;;;24.00;94.90;;;;;;5004269;28;20029;-24
2022/08/31 09:20:26;;;;;;;3.85;2.63;;;24.00;94.90;;;;;;5034106;28;20033;-23
2022/08/31 09:22:54;;;;;;;4.57;2.60;;;24.00;95.10;;;;;;5034222;28;20487;-23
2022/08/31 09:25:33;;;;;;;4.95;2.50;;;24.00;95.20;;;;;;5033919;28;20036;-24
2022/08/31 09:28:02;;;;;;;3.92;2.80;;;24.00;95.40;;;;;;5034977;28;20028;-24
2022/08/31 09:30:50;;;;;;;3.85;2.45;;;24.00;95.50;;;;;;5033232;28;20021;-24
2022/08/31 09:33:45;;;;;;;4.00;2.67;;;24.00;95.70;;;;;;5034271;28;20452;-24
2022/08/31 09:36:18;;;;;;;3.20;2.47;;;24.00;95.70;;;;;;5033793;28;20021;-24
2022/08/31 09:38:45;;;;;;;2.95;2.58;;;24.00;95.80;;;;;;5033517;28;20096;-24
2022/08/31 09:41:20;;;;;;;4.03;2.50;;;24.00;96.00;;;;;;5033497;28;20022;-24
2022/08/31 09:43:46;;;;;;;4.32;3.08;;;24.00;96.10;;;;;;5033614;28;20034;-24
2022/08/31 09:46:27;;;;;;;2.50;2.30;;;24.00;96.20;;;;;;5033636;28;20071;-24
2022/08/31 09:49:01;;;;;;;3.08;2.70;;;24.10;96.40;;;;;;5015630;28;20442;-24
2022/08/31 09:51:28;;;;;;;;;;;24.00;96.40;;;;;;5033650;28;20048;-24
2022/08/31 09:57:03;;;;;;;3.28;2.58;;;24.00;96.60;;;;;;5033384;28;20036;-24
2022/08/31 09:59:43;;;;;;;3.20;2.67;;;24.10;96.70;;;;;;5033007;28;20021;-24
2022/08/31 10:02:32;;;;;;;4.40;2.88;;;24.10;96.70;;;;;;5033252;28;20013;-24
2022/08/31 10:05:02;;;;;;;3.78;2.40;;;24.10;96.70;;;;;;5033432;28;20037;-24
2022/08/31 10:07:37;;;;;;;2.97;2.50;;;24.10;96.50;;;;;;5032812;28;20402;-24
2022/08/31 10:10:23;;;;;;;3.75;2.47;;;24.10;96.60;;;;;;5032968;28;20029;-23
2022/08/31 10:13:04;;;;;;;3.78;2.60;;;24.10;96.60;;;;;;5033529;28;20040;-24
2022/08/31 10:15:42;;;;;;;5.30;2.50;;;24.10;96.60;;;;;;5033261;28;20109;-23
2022/08/31 10:18:18;;;;;;;3.88;2.60;;;24.10;96.70;;;;;;5032731;28;20101;-24
2022/08/31 10:20:50;;;;;;;3.47;2.45;;;24.10;96.80;;;;;;5032800;28;20144;-24
2022/08/31 10:23:32;;;;;;;3.25;2.45;;;24.10;96.80;;;;;;5032598;28;20502;-24
2022/08/31 10:26:30;;;;;;;4.05;2.70;;;24.10;96.90;;;;;;5032986;28;20095;-24
2022/08/31 10:28:59;;;;;;;3.33;2.67;;;24.10;97.00;;;;;;5015147;28;20083;-24
2022/08/31 10:31:44;;;;;;;3.85;2.72;;;24.10;97.00;;;;;;5032532;28;20040;-24
2022/08/31 10:37:31;;;;;;;4.10;2.60;;;24.10;97.20;;;;;;5032677;28;20032;-24
2022/08/31 10:40:22;;;;;;;2.83;2.50;;;24.10;97.30;;;;;;5032470;28;20017;-24
2022/08/31 10:42:58;;;;;;;3.00;2.70;;;24.10;97.30;;;;;;4991486;28;20044;-24
2022/08/31 10:45:27;;;;;;;2.47;2.20;;;24.00;97.30;;;;;;5014857;28;20241;-24
2022/08/31 10:47:55;;;;;;;2.88;2.45;;;24.00;97.30;;;;;;5032373;28;20376;-23
2022/08/31 10:50:39;;;;;;;3.08;2.60;;;24.00;97.40;;;;;;5032109;28;20021;-24
2022/08/31 10:53:32;;;;;;;3.28;2.53;;;24.00;97.40;;;;;;5032436;28;20029;-23
2022/08/31 10:56:15;;;;;;;3.78;2.72;;;24.00;97.40;;;;;;5032637;28;20030;-24
2022/08/31 10:58:56;;;;;;;2.65;2.45;;;24.00;97.50;;;;;;5032127;28;20029;-24
2022/08/31 11:01:42;;;;;;;3.83;2.50;;;24.00;97.50;;;;;;5014491;28;20022;-24
2022/08/31 11:04:10;;;;;;;3.15;2.70;;;24.00;97.50;;;;;;5018283;28;20042;-24
2022/08/31 11:06:44;;;;;;;2.97;2.33;;;24.00;97.50;;;;;;5032341;28;20025;-23
2022/08/31 11:09:20;;;;;;;2.60;2.40;;;24.00;97.40;;;;;;5032050;28;20060;-23
2022/08/31 11:12:05;;;;;;;3.75;2.60;;;24.00;97.50;;;;;;5032338;28;20490;-23
2022/08/31 11:15:12;;;;;;;3.58;2.83;;;24.00;97.50;;;;;;5014877;28;20555;-23
2022/08/31 11:17:57;;;;;;;3.30;2.72;;;24.00;97.60;;;;;;5032270;28;20052;-23
2022/08/31 11:20:55;;;;;;;3.60;2.60;;;24.00;97.50;;;;;;5032548;28;20382;-24
2022/08/31 11:23:26;;;;;;;4.45;2.67;;;24.00;97.50;;;;;;5032207;28;20028;-24
2022/08/31 11:26:05;;;;;;;2.97;2.38;;;24.00;97.50;;;;;;5038646;28;20022;-24
2022/08/31 11:28:52;;;;;;;3.92;2.72;;;24.00;97.50;;;;;;5020632;28;20095;-24
2022/08/31 11:31:23;;;;;;;3.20;2.47;;;24.00;97.50;;;;;;5036489;28;20076;-24
2022/08/31 11:33:55;;;;;;;4.30;2.50;;;24.00;97.50;;;;;;5035896;28;20025;-24
2022/08/31 11:36:46;;;;;;;4.47;2.67;;;24.00;97.50;;;;;;5036056;28;20087;-24
2022/08/31 11:39:13;;;;;;;2.95;2.53;;;24.00;97.50;;;;;;5036377;28;20037;-24
2022/08/31 11:41:48;;;;;;;3.55;2.60;;;24.00;97.40;;;;;;5036476;28;20026;-24
2022/08/31 11:44:38;;;;;;;3.25;2.63;;;24.00;97.40;;;;;;5066343;22;20056;-25
2022/08/31 11:47:28;;;;;;;3.88;2.47;;;24.00;97.60;;;;;;5043452;28;20056;-26
2022/08/31 11:50:01;;;;;;;5.85;2.38;;;24.10;97.70;;;;;;5054994;28;20092;-26
2022/08/31 11:52:46;;;;;;;2.67;2.42;;;24.10;97.60;;;;;;5055093;28;20223;-27
2022/08/31 11:55:27;;;;;;;9.45;6.18;;;24.10;97.70;;;;;;5055048;28;20040;-26
2022/08/31 11:58:10;;;;;;;9.55;5.85;;;23.90;96.30;;;;;;5055047;28;20100;-27
2022/08/31 12:00:56;;;;;;;11.07;5.53;;;23.60;96.00;;;;;;5054776;28;20017;-27
2022/08/31 12:04:06;;;;;;;11.45;5.45;;;23.60;96.20;;;;;;5054842;28;20032;-28
2022/08/31 12:06:35;;;;;;;8.38;4.65;;;23.70;96.30;;;;;;5049849;28;20045;-26
2022/08/31 12:09:19;;;;;;;10.25;4.38;;;23.80;96.30;;;;;;5054689;28;20028;-27
2022/08/31 12:11:52;;;;;;;6.95;4.78;;;23.90;96.20;;;;;;5054709;28;20416;-26
2022/08/31 12:14:33;;;;;;;6.47;4.03;;;23.90;96.10;;;;;;5054616;28;20021;-27
2022/08/31 12:17:33;;;;;;;9.27;4.18;;;24.00;96.10;;;;;;5055000;28;20424;-26
2022/08/31 12:20:17;;;;;;;6.53;4.30;;;24.00;96.10;;;;;;5054263;28;20151;-27
2022/08/31 12:26:23;;;;;;;5.72;4.07;;;24.10;96.00;;;;;;5055341;28;20027;-27
2022/08/31 12:29:16;;;;;;;7.45;4.45;;;24.10;96.10;;;;;;5054057;28;20021;-26
2022/08/31 12:31:59;;;;;;;5.05;3.30;;;24.10;96.10;;;;;;5054462;28;20044;-27
2022/08/31 12:34:26;;;;;;;7.63;3.80;;;24.10;96.10;;;;;;5054228;28;20029;-26
2022/08/31 12:36:51;;;;;;;3.97;3.45;;;24.10;96.10;;;;;;5053530;28;20021;-26
2022/08/31 12:39:24;;;;;;;5.80;3.58;;;24.20;96.10;;;;;;5054711;28;20078;-26
2022/08/31 12:41:51;;;;;;;5.75;3.75;;;24.20;96.00;;;;;;5054152;28;20386;-26
2022/08/31 12:44:24;;;;;;;5.53;3.58;;;24.20;96.00;;;;;;5054105;28;20033;-27
2022/08/31 12:46:56;;;;;;;5.43;3.42;;;24.20;95.90;;;;;;5054026;28;20029;-26
2022/08/31 12:49:57;;;;;;;5.55;3.88;;;24.20;95.90;;;;;;5053992;28;20049;-27
2022/08/31 12:52:35;;;;;;;5.28;3.45;;;24.30;95.80;;;;;;4998969;28;20041;-27
2022/08/31 12:55:11;;;;;;;4.35;3.47;;;24.30;95.80;;;;;;5053917;28;20056;-26
2022/08/31 12:57:43;;;;;;;5.22;3.30;;;24.30;95.70;;;;;;5053866;28;20390;-27
2022/08/31 13:00:18;;;;;;;4.82;3.33;;;24.40;95.70;;;;;;5053869;28;20055;-28
2022/08/31 13:02:46;;;;;;;4.68;3.05;;;24.30;95.60;;;;;;5053728;28;20104;-27
2022/08/31 13:05:25;;;;;;;5.93;3.55;;;24.40;95.60;;;;;;5053785;28;20144;-26
2022/08/31 13:07:51;;;;;;;4.72;3.15;;;24.40;95.60;;;;;;5053588;28;20537;-26
2022/08/31 13:10:36;;;;;;;3.38;3.08;;;24.40;95.60;;;;;;5053457;28;20053;-27
2022/08/31 13:13:08;;;;;;;4.35;3.45;;;24.40;95.60;;;;;;5053638;28;20036;-26
2022/08/31 13:15:37;;;;;;;5.35;3.28;;;24.30;95.60;;;;;;5053616;28;20021;-27
2022/08/31 13:18:13;;;;;;;3.63;3.20;;;24.30;95.60;;;;;;5053432;28;20215;-26
2022/08/31 13:20:42;;;;;;;5.22;3.10;;;24.30;95.60;;;;;;5053332;28;20510;-26
2022/08/31 13:23:14;;;;;;;6.43;3.25;;;24.30;95.60;;;;;;5053370;28;20434;-26
2022/08/31 13:25:41;;;;;;;5.20;3.65;;;24.30;95.60;;;;;;5053464;28;20052;-27